createdAt,value
2022-12-19T00:00:28.786Z,44.95
2022-12-19T00:01:36.594Z,45.70
2022-12-19T00:02:39.692Z,40.95
2022-12-19T00:03:50.873Z,47.72
2022-12-19T00:04:53.793Z,48.05
2022-12-19T00:05:56.875Z,52.33
2022-12-19T00:07:00.542Z,46.30
2022-12-19T00:08:05.216Z,49.10
2022-12-19T00:09:20.315Z,51.30
2022-12-19T00:10:23.340Z,43.47
2022-12-19T00:11:28.025Z,51.25
2022-12-19T00:12:31.412Z,46.60
2022-12-19T00:13:41.096Z,45.47
2022-12-19T00:14:44.380Z,46.08
2022-12-19T00:15:47.402Z,52.72
2022-12-19T00:16:50.572Z,43.45
2022-12-19T00:17:53.693Z,43.63
2022-12-19T00:18:59.819Z,50.85
2022-12-19T00:20:02.731Z,48.87
2022-12-19T00:21:06.542Z,49.20
2022-12-19T00:22:11.293Z,51.53
2022-12-19T00:23:14.571Z,44.60
2022-12-19T00:24:20.693Z,47.97
2022-12-19T00:25:24.502Z,44.95
2022-12-19T00:26:33.386Z,44.05
2022-12-19T00:27:36.953Z,47.40
2022-12-19T00:28:41.076Z,46.03
2022-12-19T00:29:44.052Z,42.80
2022-12-19T00:30:47.323Z,48.60
2022-12-19T00:31:50.313Z,48.30
2022-12-19T00:32:53.321Z,47.38
2022-12-19T00:33:57.096Z,53.75
2022-12-19T00:35:00.115Z,48.92
2022-12-19T00:36:08.659Z,49.50
2022-12-19T00:37:12.392Z,56.28
2022-12-19T00:38:15.331Z,55.80
2022-12-19T00:39:18.514Z,50.00
2022-12-19T00:40:21.627Z,49.92
2022-12-19T00:41:30.618Z,50.38
2022-12-19T00:42:33.606Z,51.60
2022-12-19T00:43:37.215Z,47.53
2022-12-19T00:44:40.115Z,51.00
2022-12-19T00:45:43.119Z,48.35
2022-12-19T00:46:51.054Z,47.70
2022-12-19T00:47:56.461Z,53.10
2022-12-19T00:49:00.297Z,51.55
2022-12-19T00:50:04.379Z,52.67
2022-12-19T00:51:13.626Z,50.83
2022-12-19T00:52:16.558Z,47.75
2022-12-19T00:53:19.456Z,55.25
2022-12-19T00:54:22.401Z,48.28
2022-12-19T00:55:25.957Z,47.03
2022-12-19T00:56:31.694Z,53.97
2022-12-19T00:57:38.013Z,53.17
2022-12-19T00:58:46.420Z,49.88
2022-12-19T00:59:49.746Z,45.15
2022-12-19T01:00:53.011Z,53.58
2022-12-19T01:01:56.392Z,54.58
2022-12-19T01:03:00.499Z,49.30
2022-12-19T01:05:30.821Z,50.00
2022-12-19T01:06:34.516Z,49.38
2022-12-19T01:07:37.846Z,49.30
2022-12-19T01:08:41.299Z,45.80
2022-12-19T01:09:44.048Z,48.90
2022-12-19T01:10:49.736Z,52.55
2022-12-19T01:12:11.381Z,63.95
2022-12-19T01:13:15.599Z,54.13
2022-12-19T01:14:22.817Z,57.05
2022-12-19T01:15:26.378Z,51.83
2022-12-19T01:16:29.150Z,54.95
2022-12-19T01:17:43.529Z,48.38
2022-12-19T01:18:47.288Z,57.33
2022-12-19T01:19:50.075Z,55.30
2022-12-19T01:20:52.768Z,51.60
2022-12-19T01:21:55.734Z,45.83
2022-12-19T01:23:00.221Z,54.25
2022-12-19T01:24:05.047Z,57.35
2022-12-19T01:25:08.430Z,54.83
2022-12-19T01:26:11.122Z,51.78
2022-12-19T01:27:13.778Z,52.62
2022-12-19T01:28:16.706Z,49.67
2022-12-19T01:29:21.398Z,51.47
2022-12-19T01:30:24.193Z,59.03
2022-12-19T01:31:27.397Z,55.95
2022-12-19T01:32:30.755Z,51.50
2022-12-19T01:33:33.436Z,54.45
2022-12-19T01:34:36.362Z,55.63
2022-12-19T01:35:43.262Z,51.75
2022-12-19T01:36:46.030Z,51.42
2022-12-19T01:37:49.926Z,57.55
2022-12-19T01:38:58.619Z,55.08
2022-12-19T01:40:01.529Z,52.85
2022-12-19T01:41:04.972Z,52.05
2022-12-19T01:42:19.601Z,61.53
2022-12-19T01:43:31.135Z,51.85
2022-12-19T01:44:34.587Z,48.97
2022-12-19T01:45:43.858Z,46.88
2022-12-19T01:46:51.902Z,58.78
2022-12-19T01:48:03.169Z,57.83
2022-12-19T01:49:13.989Z,58.05
2022-12-19T01:50:27.558Z,58.85
2022-12-19T01:51:41.256Z,58.47
2022-12-19T01:52:44.348Z,51.85
2022-12-19T01:53:51.457Z,56.60
2022-12-19T01:54:54.214Z,58.20
2022-12-19T01:55:57.097Z,56.97
2022-12-19T01:57:01.620Z,58.55
2022-12-19T01:58:05.340Z,59.78
2022-12-19T01:59:16.875Z,53.25
2022-12-19T02:00:19.745Z,58.00
2022-12-19T02:01:24.841Z,48.25
2022-12-19T02:02:37.802Z,49.80
2022-12-19T02:03:41.818Z,55.67
2022-12-19T02:04:46.382Z,56.92
2022-12-19T02:05:50.462Z,55.40
2022-12-19T02:06:55.947Z,60.80
2022-12-19T02:08:00.574Z,51.42
2022-12-19T02:09:03.338Z,53.83
2022-12-19T02:10:06.675Z,59.33
2022-12-19T02:11:09.471Z,58.13
2022-12-19T02:12:14.967Z,62.90
2022-12-19T02:13:18.473Z,55.67
2022-12-19T02:14:21.817Z,57.60
2022-12-19T02:15:29.988Z,57.72
2022-12-19T02:17:20.067Z,58.67
2022-12-19T02:18:38.834Z,54.80
2022-12-19T02:19:59.526Z,55.12
2022-12-19T02:21:33.042Z,53.85
2022-12-19T02:23:13.152Z,51.33
2022-12-19T02:24:39.862Z,54.08
2022-12-19T02:25:56.722Z,54.22
2022-12-19T02:27:22.481Z,54.80
2022-12-19T02:28:53.092Z,60.22
2022-12-19T02:30:07.430Z,60.15
2022-12-19T02:31:21.909Z,58.92
2022-12-19T02:32:46.303Z,53.30
2022-12-19T02:34:04.530Z,54.00
2022-12-19T02:35:17.739Z,56.00
2022-12-19T02:36:29.828Z,56.37
2022-12-19T02:37:50.278Z,53.70
2022-12-19T02:39:06.020Z,54.42
2022-12-19T02:40:20.327Z,59.63
2022-12-19T02:41:43.564Z,56.30
2022-12-19T02:42:52.244Z,60.33
2022-12-19T02:43:58.977Z,60.12
2022-12-19T02:45:05.568Z,58.10
2022-12-19T02:46:10.242Z,53.95
2022-12-19T02:47:14.959Z,57.38
2022-12-19T02:48:19.422Z,56.72
2022-12-19T02:49:26.875Z,58.30
2022-12-19T02:51:45.093Z,50.50
2022-12-19T02:52:49.752Z,55.70
2022-12-19T02:53:52.604Z,58.65
2022-12-19T02:55:01.768Z,57.28
2022-12-19T02:56:18.499Z,56.83
2022-12-19T02:57:30.432Z,57.83
2022-12-19T02:59:05.089Z,56.55
2022-12-19T03:00:36.999Z,57.25
2022-12-19T03:01:51.801Z,51.35
2022-12-19T03:03:21.431Z,62.92
2022-12-19T03:04:29.983Z,56.28
2022-12-19T03:05:32.860Z,55.12
2022-12-19T03:06:48.814Z,53.90
2022-12-19T03:08:25.260Z,53.28
2022-12-19T03:09:34.093Z,50.40
2022-12-19T03:10:54.811Z,55.58
2022-12-19T03:12:05.739Z,66.57
2022-12-19T03:13:13.414Z,59.33
2022-12-19T03:14:19.896Z,53.35
2022-12-19T03:15:24.066Z,57.10
2022-12-19T03:16:27.253Z,56.80
2022-12-19T03:17:35.859Z,63.55
2022-12-19T03:18:39.691Z,55.75
2022-12-19T03:19:42.790Z,57.50
2022-12-19T03:21:02.857Z,59.47
2022-12-19T03:22:05.696Z,57.70
2022-12-19T03:23:08.744Z,57.38
2022-12-19T03:24:13.464Z,45.55
2022-12-19T03:25:16.452Z,65.07
2022-12-19T03:26:21.913Z,61.80
2022-12-19T03:27:30.952Z,55.35
2022-12-19T03:28:42.352Z,47.20
2022-12-19T03:29:55.336Z,58.80
2022-12-19T03:31:00.023Z,54.92
2022-12-19T03:32:05.814Z,65.25
2022-12-19T03:33:10.697Z,43.97
2022-12-19T03:34:25.743Z,63.85
2022-12-19T03:35:32.514Z,57.08
2022-12-19T03:36:43.142Z,57.40
2022-12-19T03:37:49.259Z,59.90
2022-12-19T03:38:52.902Z,61.17
2022-12-19T03:40:02.205Z,58.83
2022-12-19T03:41:10.778Z,67.30
2022-12-19T03:42:35.096Z,53.95
2022-12-19T03:43:39.102Z,56.08
2022-12-19T03:44:43.657Z,58.78
2022-12-19T03:46:05.340Z,55.22
2022-12-19T03:47:18.082Z,61.10
2022-12-19T03:48:27.472Z,55.72
2022-12-19T03:49:30.411Z,62.10
2022-12-19T03:50:51.268Z,60.72
2022-12-19T03:52:06.910Z,53.90
2022-12-19T03:53:57.236Z,52.13
2022-12-19T03:55:22.033Z,53.55
2022-12-19T03:56:49.429Z,63.97
2022-12-19T03:57:56.277Z,55.10
2022-12-19T03:59:10.320Z,55.30
2022-12-19T04:00:16.379Z,54.28
2022-12-19T04:01:19.621Z,54.33
2022-12-19T04:02:24.478Z,60.17
2022-12-19T04:03:30.401Z,59.65
2022-12-19T04:04:39.574Z,59.47
2022-12-19T04:05:44.038Z,56.30
2022-12-19T04:06:49.062Z,52.78
2022-12-19T04:07:57.541Z,63.47
2022-12-19T04:09:01.420Z,57.33
2022-12-19T04:10:11.714Z,54.65
2022-12-19T04:11:20.373Z,62.15
2022-12-19T04:12:31.072Z,54.85
2022-12-19T04:13:39.161Z,54.85
2022-12-19T04:14:42.457Z,60.63
2022-12-19T04:16:10.160Z,53.30
2022-12-19T04:17:51.763Z,55.53
2022-12-19T04:19:03.603Z,58.78
2022-12-19T04:20:09.461Z,61.03
2022-12-19T04:21:19.223Z,56.85
2022-12-19T04:22:35.066Z,56.75
2022-12-19T04:23:45.225Z,55.38
2022-12-19T04:24:50.679Z,56.72
2022-12-19T04:25:59.539Z,50.72
2022-12-19T04:27:06.053Z,46.37
2022-12-19T04:28:20.571Z,56.17
2022-12-19T04:29:25.158Z,53.38
2022-12-19T04:30:27.891Z,55.30
2022-12-19T04:31:31.562Z,55.40
2022-12-19T04:32:36.939Z,53.72
2022-12-19T04:33:39.899Z,56.80
2022-12-19T04:34:43.196Z,56.35
2022-12-19T04:35:46.182Z,50.92
2022-12-19T04:36:50.709Z,59.05
2022-12-19T04:37:53.385Z,53.58
2022-12-19T04:38:56.269Z,58.08
2022-12-19T04:39:59.848Z,55.85
2022-12-19T04:41:03.196Z,61.03
2022-12-19T04:42:06.097Z,48.22
2022-12-19T04:43:09.778Z,62.40
2022-12-19T04:44:12.717Z,55.17
2022-12-19T04:45:15.545Z,59.45
2022-12-19T04:46:18.804Z,53.50
2022-12-19T04:47:21.904Z,53.58
2022-12-19T04:48:25.209Z,52.97
2022-12-19T04:49:28.112Z,51.50
2022-12-19T04:50:33.192Z,52.25
2022-12-19T04:51:35.864Z,54.03
2022-12-19T04:52:38.830Z,56.72
2022-12-19T04:53:41.545Z,50.50
2022-12-19T04:54:44.585Z,54.33
2022-12-19T04:55:47.344Z,58.65
2022-12-19T04:56:50.186Z,55.10
2022-12-19T04:57:53.389Z,56.80
2022-12-19T04:58:59.731Z,52.17
2022-12-19T05:00:04.186Z,60.67
2022-12-19T05:01:09.079Z,61.00
2022-12-19T05:02:11.849Z,50.80
2022-12-19T05:03:14.676Z,53.03
2022-12-19T05:04:17.586Z,69.25
2022-12-19T05:05:20.377Z,65.55
2022-12-19T05:06:23.585Z,63.65
2022-12-19T05:07:26.430Z,63.67
2022-12-19T05:08:29.626Z,68.32
2022-12-19T05:09:32.467Z,71.68
2022-12-19T05:10:37.135Z,65.35
2022-12-19T05:11:39.861Z,69.70
2022-12-19T05:12:42.699Z,68.60
2022-12-19T05:13:45.465Z,68.90
2022-12-19T05:14:48.215Z,61.53
2022-12-19T05:16:17.062Z,65.82
2022-12-19T05:17:20.038Z,66.00
2022-12-19T05:18:23.025Z,66.53
2022-12-19T05:19:25.786Z,68.57
2022-12-19T05:20:28.551Z,65.18
2022-12-19T05:21:31.857Z,73.18
2022-12-19T05:22:34.544Z,73.30
2022-12-19T05:23:37.351Z,72.93
2022-12-19T05:24:40.026Z,71.35
2022-12-19T05:25:42.689Z,74.40
2022-12-19T05:26:45.427Z,74.55
2022-12-19T05:27:48.350Z,66.07
2022-12-19T05:28:51.087Z,65.68
2022-12-19T05:29:53.780Z,72.25
2022-12-19T05:31:05.515Z,71.43
2022-12-19T05:32:08.275Z,68.45
2022-12-19T05:33:11.403Z,64.18
2022-12-19T05:34:14.142Z,69.82
2022-12-19T05:35:16.873Z,70.72
2022-12-19T05:36:20.335Z,68.07
2022-12-19T05:37:23.089Z,69.72
2022-12-19T05:38:26.656Z,70.80
2022-12-19T05:39:30.048Z,63.05
2022-12-19T05:40:33.612Z,68.00
2022-12-19T05:41:36.572Z,68.15
2022-12-19T05:42:39.482Z,65.32
2022-12-19T05:43:42.864Z,63.28
2022-12-19T05:44:45.988Z,66.55
2022-12-19T05:45:48.696Z,72.32
2022-12-19T05:46:51.491Z,59.45
2022-12-19T05:47:58.654Z,70.90
2022-12-19T05:49:04.292Z,67.57
2022-12-19T05:50:07.503Z,67.43
2022-12-19T05:51:10.500Z,67.32
2022-12-19T05:52:13.245Z,70.18
2022-12-19T05:53:19.692Z,67.62
2022-12-19T05:54:26.389Z,66.30
2022-12-19T05:55:29.325Z,64.93
2022-12-19T05:56:32.072Z,65.80
2022-12-19T05:57:35.544Z,63.42
2022-12-19T05:58:40.512Z,66.00
2022-12-19T05:59:43.342Z,71.68
2022-12-19T06:00:46.114Z,62.20
2022-12-19T06:01:48.972Z,69.82
2022-12-19T06:02:51.802Z,69.65
2022-12-19T06:03:55.433Z,63.80
2022-12-19T06:04:58.056Z,59.50
2022-12-19T06:06:12.667Z,65.68
2022-12-19T06:07:20.752Z,65.37
2022-12-19T06:08:24.376Z,62.97
2022-12-19T06:09:27.075Z,62.30
2022-12-19T06:10:29.705Z,64.87
2022-12-19T06:11:32.422Z,69.55
2022-12-19T06:12:35.241Z,64.97
2022-12-19T06:13:38.744Z,63.72
2022-12-19T06:14:41.454Z,67.72
2022-12-19T06:15:44.221Z,68.37
2022-12-19T06:16:47.237Z,65.55
2022-12-19T06:17:54.206Z,70.43
2022-12-19T06:18:56.961Z,69.82
2022-12-19T06:20:00.095Z,64.45
2022-12-19T06:21:06.374Z,68.22
2022-12-19T06:22:09.130Z,62.62
2022-12-19T06:23:11.952Z,63.13
2022-12-19T06:24:14.668Z,68.25
2022-12-19T06:25:17.320Z,66.87
2022-12-19T06:26:21.809Z,65.87
2022-12-19T06:27:24.485Z,61.37
2022-12-19T06:28:28.977Z,70.37
2022-12-19T06:29:31.881Z,61.90
2022-12-19T06:30:34.616Z,62.33
2022-12-19T06:31:37.382Z,54.15
2022-12-19T06:32:40.054Z,66.60
2022-12-19T06:33:42.902Z,75.05
2022-12-19T06:35:03.819Z,68.57
2022-12-19T06:36:13.761Z,65.28
2022-12-19T06:37:16.686Z,75.18
2022-12-19T06:38:19.332Z,68.72
2022-12-19T06:39:22.696Z,69.93
2022-12-19T06:40:43.821Z,70.18
2022-12-19T06:42:04.916Z,67.37
2022-12-19T06:43:07.531Z,75.53
2022-12-19T06:44:12.754Z,68.60
2022-12-19T06:45:15.523Z,70.03
2022-12-19T06:46:18.238Z,82.47
2022-12-19T06:47:22.380Z,72.62
2022-12-19T06:48:27.763Z,75.57
2022-12-19T06:49:30.536Z,74.30
2022-12-19T06:50:33.313Z,66.82
2022-12-19T06:51:36.090Z,67.05
2022-12-19T06:52:38.728Z,74.07
2022-12-19T06:53:41.890Z,76.62
2022-12-19T06:54:44.732Z,74.57
2022-12-19T06:55:49.223Z,72.30
2022-12-19T06:56:52.055Z,64.93
2022-12-19T06:57:55.536Z,68.30
2022-12-19T06:58:58.228Z,70.57
2022-12-19T07:00:01.012Z,77.30
2022-12-19T07:01:03.816Z,71.95
2022-12-19T07:02:24.772Z,69.00
2022-12-19T07:03:32.653Z,68.75
2022-12-19T07:04:44.030Z,67.35
2022-12-19T07:05:47.330Z,71.22
2022-12-19T07:06:50.180Z,69.05
2022-12-19T07:07:53.221Z,65.93
2022-12-19T07:08:55.971Z,72.55
2022-12-19T07:09:59.112Z,71.43
2022-12-19T07:11:02.457Z,70.75
2022-12-19T07:12:05.389Z,70.57
2022-12-19T07:13:08.283Z,64.47
2022-12-19T07:14:10.998Z,72.68
2022-12-19T07:15:14.219Z,72.68
2022-12-19T07:16:17.059Z,76.53
2022-12-19T07:17:22.245Z,72.62
2022-12-19T07:18:24.923Z,70.35
2022-12-19T07:19:28.837Z,72.20
2022-12-19T07:20:33.840Z,63.42
2022-12-19T07:21:37.127Z,65.82
2022-12-19T07:22:41.170Z,63.97
2022-12-19T07:23:44.455Z,63.92
2022-12-19T07:24:47.390Z,62.38
2022-12-19T07:25:50.422Z,62.50
2022-12-19T07:26:53.276Z,60.63
2022-12-19T07:27:56.234Z,59.90
2022-12-19T07:29:00.166Z,63.22
2022-12-19T07:30:06.041Z,45.08
2022-12-19T07:31:08.960Z,60.80
2022-12-19T07:32:11.689Z,66.97
2022-12-19T07:33:18.354Z,61.83
2022-12-19T07:34:24.088Z,58.55
2022-12-19T07:35:26.924Z,57.92
2022-12-19T07:36:29.855Z,59.78
2022-12-19T07:37:32.688Z,55.28
2022-12-19T07:38:36.919Z,56.80
2022-12-19T07:39:39.606Z,58.03
2022-12-19T07:40:42.596Z,63.95
2022-12-19T07:41:45.378Z,56.65
2022-12-19T07:42:47.972Z,60.08
2022-12-19T07:43:50.844Z,53.47
2022-12-19T07:44:53.564Z,54.42
2022-12-19T07:45:57.098Z,58.87
2022-12-19T07:46:59.795Z,55.88
2022-12-19T07:48:03.789Z,57.03
2022-12-19T07:49:06.491Z,59.25
2022-12-19T07:50:09.398Z,64.10
2022-12-19T07:51:12.101Z,65.53
2022-12-19T07:52:14.897Z,62.08
2022-12-19T07:53:17.577Z,59.47
2022-12-19T07:54:20.411Z,53.08
2022-12-19T07:55:23.229Z,57.80
2022-12-19T07:56:26.098Z,47.65
2022-12-19T07:57:29.075Z,50.38
2022-12-19T07:58:31.798Z,55.95
2022-12-19T07:59:38.955Z,46.83
2022-12-19T08:00:42.549Z,36.72
2022-12-19T08:01:45.515Z,48.50
2022-12-19T08:02:48.926Z,53.17
2022-12-19T08:03:52.556Z,45.55
2022-12-19T08:04:55.508Z,48.42
2022-12-19T08:06:05.557Z,49.03
2022-12-19T08:07:08.822Z,47.33
2022-12-19T08:08:11.583Z,50.85
2022-12-19T08:09:14.486Z,56.17
2022-12-19T08:10:17.305Z,47.33
2022-12-19T08:11:29.596Z,41.85
2022-12-19T08:12:33.917Z,47.05
2022-12-19T08:13:40.868Z,31.62
2022-12-19T08:14:47.453Z,39.28
2022-12-19T08:15:50.339Z,53.83
2022-12-19T08:17:19.889Z,45.50
2022-12-19T08:18:16.016Z,47.97
2022-12-19T08:19:20.569Z,44.42
2022-12-19T08:20:26.409Z,51.33
2022-12-19T08:21:29.396Z,47.90
2022-12-19T08:22:32.309Z,50.33
2022-12-19T08:23:35.009Z,48.72
2022-12-19T08:24:37.793Z,53.03
2022-12-19T08:25:40.668Z,52.72
2022-12-19T08:26:47.539Z,53.00
2022-12-19T08:27:50.967Z,60.83
2022-12-19T08:28:56.391Z,54.13
2022-12-19T08:29:59.111Z,52.83
2022-12-19T08:31:11.387Z,53.83
2022-12-19T08:32:20.867Z,51.67
2022-12-19T08:33:24.657Z,55.12
2022-12-19T08:34:27.461Z,56.33
2022-12-19T08:35:30.230Z,55.38
2022-12-19T08:36:32.976Z,52.70
2022-12-19T08:37:35.703Z,54.20
2022-12-19T08:38:42.433Z,55.38
2022-12-19T08:39:45.202Z,59.88
2022-12-19T08:40:54.818Z,55.90
2022-12-19T08:41:57.418Z,58.67
2022-12-19T08:43:00.118Z,57.38
2022-12-19T08:44:02.951Z,57.95
2022-12-19T08:45:06.252Z,56.70
2022-12-19T08:46:09.800Z,53.38
2022-12-19T08:47:12.634Z,52.53
2022-12-19T08:48:15.302Z,53.75
2022-12-19T08:49:19.155Z,58.50
2022-12-19T08:50:21.838Z,62.10
2022-12-19T08:51:24.713Z,56.60
2022-12-19T08:52:27.377Z,34.38
2022-12-19T08:53:32.225Z,59.05
2022-12-19T08:54:34.934Z,50.05
2022-12-19T08:55:37.726Z,50.15
2022-12-19T08:56:46.361Z,31.15
2022-12-19T08:57:49.668Z,53.40
2022-12-19T08:58:52.575Z,48.60
2022-12-19T08:59:55.326Z,52.28
2022-12-19T09:01:06.012Z,47.33
2022-12-19T09:02:10.679Z,44.75
2022-12-19T09:03:13.651Z,43.63
2022-12-19T09:05:43.717Z,43.33
2022-12-19T09:06:00.038Z,46.58
2022-12-19T09:07:03.808Z,46.88
2022-12-19T09:08:06.984Z,49.22
2022-12-19T09:09:09.760Z,41.10
2022-12-19T09:10:12.416Z,38.92
2022-12-19T09:11:17.739Z,50.53
2022-12-19T09:12:20.406Z,46.50
2022-12-19T09:13:23.061Z,40.83
2022-12-19T09:14:25.672Z,48.05
2022-12-19T09:15:28.363Z,41.60
2022-12-19T09:16:31.164Z,41.95
2022-12-19T09:17:34.075Z,40.08
2022-12-19T09:18:39.861Z,40.60
2022-12-19T09:19:47.901Z,42.15
2022-12-19T09:20:54.386Z,37.88
2022-12-19T09:21:57.259Z,41.80
2022-12-19T09:23:00.121Z,40.53
2022-12-19T09:24:07.923Z,44.70
2022-12-19T09:25:11.240Z,41.83
2022-12-19T09:26:14.339Z,44.45
2022-12-19T09:27:17.470Z,33.88
2022-12-19T09:28:28.428Z,42.17
2022-12-19T09:29:35.283Z,38.70
2022-12-19T09:30:38.482Z,44.40
2022-12-19T09:31:41.272Z,46.28
2022-12-19T09:32:44.014Z,42.03
2022-12-19T09:33:48.042Z,37.10
2022-12-19T09:34:50.634Z,45.45
2022-12-19T09:35:56.581Z,32.50
2022-12-19T09:36:59.609Z,34.83
2022-12-19T09:38:03.963Z,39.25
2022-12-19T09:39:06.920Z,38.30
2022-12-19T09:40:16.772Z,40.03
2022-12-19T09:41:37.574Z,36.55
2022-12-19T09:42:55.606Z,33.22
2022-12-19T09:44:06.919Z,39.55
2022-12-19T09:45:29.440Z,35.13
2022-12-19T09:46:52.330Z,35.38
2022-12-19T09:48:01.695Z,36.25
2022-12-19T09:49:17.081Z,37.45
2022-12-19T09:50:52.890Z,33.20
2022-12-19T09:52:08.410Z,24.73
2022-12-19T09:53:36.574Z,40.20
2022-12-19T09:54:42.786Z,34.10
2022-12-19T09:55:48.429Z,38.78
2022-12-19T09:56:58.226Z,40.78
2022-12-19T09:58:19.674Z,39.10
2022-12-19T09:59:26.129Z,34.90
2022-12-19T10:00:39.513Z,38.10
2022-12-19T10:02:10.012Z,38.10
2022-12-19T10:03:22.736Z,36.00
2022-12-19T10:04:28.342Z,40.80
2022-12-19T10:07:07.809Z,38.45
2022-12-19T10:07:21.975Z,38.22
2022-12-19T10:10:10.682Z,37.00
2022-12-19T10:12:34.589Z,27.85
2022-12-19T10:12:44.610Z,46.47
2022-12-19T10:13:53.309Z,41.72
2022-12-19T10:15:20.435Z,38.70
2022-12-19T10:16:23.057Z,41.60
2022-12-19T10:17:49.272Z,39.60
2022-12-19T10:18:57.080Z,41.42
2022-12-19T10:20:15.190Z,42.97
2022-12-19T10:21:42.936Z,36.28
2022-12-19T10:22:46.351Z,39.00
2022-12-19T10:24:10.367Z,39.38
2022-12-19T10:25:23.973Z,38.35
2022-12-19T10:26:47.329Z,37.55
2022-12-19T10:28:00.558Z,32.78
2022-12-19T10:29:43.486Z,37.05
2022-12-19T10:32:27.992Z,24.12
2022-12-19T10:33:59.812Z,35.72
2022-12-19T10:35:11.639Z,36.88
2022-12-19T10:36:15.967Z,42.65
2022-12-19T10:37:37.409Z,34.42
2022-12-19T10:38:59.587Z,35.17
2022-12-19T10:40:14.318Z,42.83
2022-12-19T10:41:28.086Z,33.50
2022-12-19T10:42:38.372Z,36.58
2022-12-19T10:44:08.412Z,35.55
2022-12-19T10:45:18.236Z,36.20
2022-12-19T10:46:42.844Z,29.35
2022-12-19T10:47:58.623Z,38.67
2022-12-19T10:49:06.635Z,40.45
2022-12-19T10:50:17.484Z,38.97
2022-12-19T10:51:26.594Z,41.67
2022-12-19T10:52:52.526Z,32.45
2022-12-19T10:53:57.665Z,35.30
2022-12-19T10:55:00.499Z,38.65
2022-12-19T10:56:20.883Z,33.50
2022-12-19T10:57:29.597Z,38.22
2022-12-19T10:58:37.973Z,36.05
2022-12-19T10:59:54.207Z,39.10
2022-12-19T11:01:17.865Z,29.10
2022-12-19T11:02:35.184Z,38.33
2022-12-19T11:03:40.312Z,36.70
2022-12-19T11:04:43.115Z,40.65
2022-12-19T11:05:57.645Z,30.88
2022-12-19T11:07:05.265Z,39.10
2022-12-19T11:08:07.976Z,36.95
2022-12-19T11:09:19.264Z,36.42
2022-12-19T11:12:38.534Z,37.47
2022-12-19T11:16:37.167Z,34.15
2022-12-19T11:18:41.906Z,34.83
2022-12-19T11:19:23.218Z,38.38
2022-12-19T11:24:05.307Z,36.88
2022-12-19T11:24:13.648Z,38.17
2022-12-19T11:29:27.405Z,27.27
2022-12-19T11:29:38.522Z,27.77
2022-12-19T11:29:41.547Z,36.25
2022-12-19T11:29:44.965Z,34.67
2022-12-19T11:30:09.734Z,35.47
2022-12-19T11:30:48.371Z,43.30
2022-12-19T11:31:50.906Z,33.05
2022-12-19T11:32:36.480Z,35.15
2022-12-19T11:33:27.365Z,35.17
2022-12-19T11:34:37.330Z,35.40
2022-12-19T11:35:49.649Z,37.13
2022-12-19T11:37:19.210Z,35.50
2022-12-19T11:38:45.630Z,33.63
2022-12-19T11:39:58.788Z,39.05
2022-12-19T11:41:12.128Z,35.38
2022-12-19T11:42:26.091Z,30.92
2022-12-19T11:43:55.218Z,34.10
2022-12-19T11:45:17.939Z,37.50
2022-12-19T11:46:29.081Z,37.78
2022-12-19T11:47:40.894Z,34.72
2022-12-19T11:48:56.559Z,35.13
2022-12-19T11:50:13.644Z,34.75
2022-12-19T11:51:19.603Z,37.55
2022-12-19T11:54:27.619Z,39.25
2022-12-19T11:55:44.404Z,30.30
2022-12-19T11:56:47.177Z,32.40
2022-12-19T11:57:50.047Z,38.03
2022-12-19T11:59:00.247Z,41.30
2022-12-19T12:00:05.582Z,40.55
2022-12-19T12:01:18.075Z,43.22
2022-12-19T12:02:29.471Z,33.63
2022-12-19T12:03:55.925Z,32.72
2022-12-19T12:05:10.005Z,35.28
2022-12-19T12:06:17.477Z,33.60
2022-12-19T12:08:17.498Z,39.08
2022-12-19T12:11:19.004Z,37.17
2022-12-19T12:14:45.493Z,34.13
2022-12-19T12:16:53.524Z,37.38
2022-12-19T12:23:39.983Z,28.17
2022-12-19T12:24:32.482Z,28.90
2022-12-19T12:27:10.908Z,40.22
2022-12-19T12:31:02.008Z,36.67
2022-12-19T12:31:13.019Z,38.20
2022-12-19T12:31:39.254Z,36.22
2022-12-19T12:31:39.751Z,33.83
2022-12-19T12:31:41.323Z,36.47
2022-12-19T12:31:49.208Z,34.90
2022-12-19T12:31:57.030Z,41.08
2022-12-19T12:32:00.572Z,36.67
2022-12-19T12:35:51.512Z,34.90
2022-12-19T12:39:04.730Z,36.83
2022-12-19T12:40:44.769Z,34.83
2022-12-19T12:42:27.637Z,41.63
2022-12-19T12:43:52.026Z,36.33
2022-12-19T12:44:59.618Z,38.30
2022-12-19T12:46:05.599Z,40.45
2022-12-19T12:47:22.486Z,37.10
2022-12-19T12:48:50.792Z,39.47
2022-12-19T12:50:04.348Z,38.42
2022-12-19T12:51:07.749Z,37.50
2022-12-19T12:52:16.609Z,42.90
2022-12-19T12:53:25.424Z,39.78
2022-12-19T12:54:34.895Z,42.90
2022-12-19T12:55:42.085Z,36.13
2022-12-19T12:56:47.078Z,43.50
2022-12-19T12:57:50.009Z,43.55
2022-12-19T12:58:54.330Z,37.83
2022-12-19T13:00:16.617Z,37.42
2022-12-19T13:02:39.066Z,39.97
2022-12-19T13:03:43.372Z,35.97
2022-12-19T13:04:58.914Z,37.60
2022-12-19T13:06:21.267Z,39.15
2022-12-19T13:07:50.448Z,34.95
2022-12-19T13:09:22.821Z,39.28
2022-12-19T13:11:47.969Z,29.98
2022-12-19T13:13:00.844Z,37.95
2022-12-19T13:14:04.684Z,35.90
2022-12-19T13:15:30.090Z,38.40
2022-12-19T13:16:44.944Z,36.35
2022-12-19T13:17:47.759Z,38.88
2022-12-19T13:19:25.776Z,37.10
2022-12-19T13:20:30.850Z,40.67
2022-12-19T13:22:04.949Z,39.22
2022-12-19T13:23:41.971Z,36.60
2022-12-19T13:24:51.007Z,40.88
2022-12-19T13:25:55.294Z,39.50
2022-12-19T13:26:57.878Z,36.20
2022-12-19T13:28:03.143Z,38.72
2022-12-19T13:29:51.491Z,32.72
2022-12-19T13:31:20.894Z,31.10
2022-12-19T13:32:25.021Z,41.95
2022-12-19T13:33:52.052Z,37.03
2022-12-19T13:35:06.246Z,40.60
2022-12-19T13:39:49.254Z,38.70
2022-12-19T13:39:57.351Z,37.67
2022-12-19T13:40:07.447Z,43.22
2022-12-19T13:41:47.331Z,38.30
2022-12-19T13:43:27.610Z,34.05
2022-12-19T13:44:32.164Z,40.85
2022-12-19T13:45:35.760Z,36.00
2022-12-19T13:46:45.946Z,37.78
2022-12-19T13:47:51.461Z,32.90
2022-12-19T13:49:01.545Z,40.38
2022-12-19T13:50:15.692Z,39.22
2022-12-19T13:51:18.752Z,37.22
2022-12-19T13:52:23.088Z,42.58
2022-12-19T13:53:29.053Z,41.47
2022-12-19T13:54:45.758Z,35.30
2022-12-19T13:55:49.083Z,39.33
2022-12-19T13:56:53.752Z,40.22
2022-12-19T13:57:57.323Z,36.05
2022-12-19T13:59:03.952Z,42.30
2022-12-19T14:00:17.351Z,39.08
2022-12-19T14:01:33.613Z,37.85
2022-12-19T14:02:45.269Z,39.90
2022-12-19T14:03:51.088Z,43.78
2022-12-19T14:04:54.132Z,28.60
2022-12-19T14:06:16.591Z,28.17
2022-12-19T14:07:40.443Z,40.97
2022-12-19T14:08:46.136Z,40.08
2022-12-19T14:11:29.041Z,39.55
2022-12-19T14:11:40.202Z,29.92
2022-12-19T14:13:58.097Z,36.10
2022-12-19T14:14:44.733Z,41.90
2022-12-19T14:15:52.167Z,37.22
2022-12-19T14:16:56.551Z,36.05
2022-12-19T14:18:43.398Z,34.80
2022-12-19T14:19:47.203Z,40.83
2022-12-19T14:22:10.104Z,42.45
2022-12-19T14:22:29.661Z,42.03
2022-12-19T14:23:38.145Z,36.88
2022-12-19T14:25:32.690Z,29.83
2022-12-19T14:28:18.230Z,38.58
2022-12-19T14:28:26.305Z,36.78
2022-12-19T14:30:28.762Z,40.33
2022-12-19T14:31:08.064Z,41.40
2022-12-19T14:33:39.191Z,35.83
2022-12-19T14:33:43.921Z,46.15
2022-12-19T14:36:06.249Z,35.97
2022-12-19T14:36:33.894Z,41.85
2022-12-19T14:39:22.990Z,42.53
2022-12-19T14:39:25.611Z,41.05
2022-12-19T14:40:32.053Z,40.42
2022-12-19T14:42:01.726Z,45.60
2022-12-19T14:43:59.341Z,43.38
2022-12-19T14:51:42.861Z,46.70
2022-12-19T14:54:00.456Z,44.45
2022-12-19T14:54:06.398Z,37.05
2022-12-19T14:54:07.406Z,41.72
2022-12-19T14:54:08.151Z,41.85
2022-12-19T14:54:30.492Z,38.15
2022-12-19T14:56:14.096Z,34.13
2022-12-19T14:57:02.268Z,47.28
2022-12-19T14:58:53.140Z,37.13
2022-12-19T14:59:46.246Z,39.63
2022-12-19T15:01:09.468Z,38.50
2022-12-19T15:02:32.589Z,45.22
2022-12-19T15:04:47.662Z,42.35
2022-12-19T15:05:18.984Z,46.97
2022-12-19T15:07:08.622Z,45.78
2022-12-19T15:07:54.531Z,42.35
2022-12-19T15:11:00.975Z,45.30
2022-12-19T15:11:05.356Z,42.72
2022-12-19T15:14:04.173Z,41.25
2022-12-19T15:14:52.402Z,38.72
2022-12-19T15:15:22.370Z,47.75
2022-12-19T15:16:27.073Z,38.20
2022-12-19T15:17:29.901Z,37.22
2022-12-19T15:18:32.781Z,47.67
2022-12-19T15:19:35.548Z,46.37
2022-12-19T15:20:38.451Z,43.25
2022-12-19T15:21:41.217Z,42.03
2022-12-19T15:22:44.294Z,44.05
2022-12-19T15:23:47.163Z,40.33
2022-12-19T15:24:49.900Z,45.35
2022-12-19T15:26:09.172Z,38.95